createdAt,value
2018-06-13T00:00:05.597Z,972.79
2018-06-13T00:01:05.230Z,972.85
2018-06-13T00:02:05.095Z,972.83
2018-06-13T00:03:05.198Z,972.80
2018-06-13T00:04:05.495Z,972.74
2018-06-13T00:05:05.612Z,972.63
2018-06-13T00:06:05.335Z,972.80
2018-06-13T00:07:05.042Z,972.71
2018-06-13T00:08:05.777Z,972.68
2018-06-13T00:09:05.684Z,972.77
2018-06-13T00:10:06.112Z,972.80
2018-06-13T00:11:05.684Z,972.83
2018-06-13T00:12:05.205Z,972.80
2018-06-13T00:13:05.515Z,972.77
2018-06-13T00:14:05.495Z,972.74
2018-06-13T00:15:05.505Z,972.71
2018-06-13T00:16:05.545Z,972.66
2018-06-13T00:17:05.663Z,972.66
2018-06-13T00:18:05.636Z,972.60
2018-06-13T00:19:05.481Z,972.63
2018-06-13T00:20:05.765Z,972.63
2018-06-13T00:21:05.062Z,972.66
2018-06-13T00:22:06.511Z,972.54
2018-06-13T00:23:05.454Z,972.63
2018-06-13T00:24:05.465Z,972.66
2018-06-13T00:25:05.211Z,972.60
2018-06-13T00:26:05.610Z,972.57
2018-06-13T00:27:05.523Z,972.66
2018-06-13T00:28:05.904Z,972.47
2018-06-13T00:29:05.219Z,972.47
2018-06-13T00:30:04.939Z,972.44
2018-06-13T00:31:05.834Z,972.57
2018-06-13T00:32:06.161Z,972.52
2018-06-13T00:33:05.272Z,972.41
2018-06-13T00:34:05.533Z,972.44
2018-06-13T00:35:05.340Z,972.58
2018-06-13T00:36:05.662Z,972.58
2018-06-13T00:37:05.217Z,972.52
2018-06-13T00:38:05.066Z,972.55
2018-06-13T00:39:10.661Z,972.55
2018-06-13T00:40:11.833Z,972.58
2018-06-13T00:41:05.978Z,972.52
2018-06-13T00:42:05.574Z,972.67
2018-06-13T00:43:05.930Z,972.69
2018-06-13T00:44:05.849Z,972.58
2018-06-13T00:45:05.900Z,972.55
2018-06-13T00:46:05.579Z,972.58
2018-06-13T00:47:05.730Z,972.67
2018-06-13T00:48:05.905Z,972.61
2018-06-13T00:49:05.915Z,972.55
2018-06-13T00:50:05.508Z,972.64
2018-06-13T00:51:05.789Z,972.61
2018-06-13T00:52:05.454Z,972.64
2018-06-13T00:53:06.073Z,972.67
2018-06-13T00:54:05.421Z,972.58
2018-06-13T00:55:06.030Z,972.67
2018-06-13T00:56:05.130Z,972.67
2018-06-13T00:57:05.787Z,972.48
2018-06-13T00:58:05.935Z,972.59
2018-06-13T00:59:05.923Z,972.61
2018-06-13T01:00:05.922Z,972.48
2018-06-13T01:01:05.890Z,972.42
2018-06-13T01:02:05.291Z,972.53
2018-06-13T01:03:05.147Z,972.64
2018-06-13T01:04:05.529Z,972.62
2018-06-13T01:05:05.702Z,972.48
2018-06-13T01:06:05.421Z,972.39
2018-06-13T01:07:05.345Z,972.39
2018-06-13T01:08:05.195Z,972.53
2018-06-13T01:09:04.916Z,972.42
2018-06-13T01:10:06.101Z,972.39
2018-06-13T01:11:05.551Z,972.45
2018-06-13T01:12:05.732Z,972.53
2018-06-13T01:13:05.025Z,972.59
2018-06-13T01:14:05.473Z,972.68
2018-06-13T01:15:05.280Z,972.56
2018-06-13T01:16:05.372Z,972.65
2018-06-13T01:17:05.197Z,972.53
2018-06-13T01:18:05.212Z,972.46
2018-06-13T01:19:05.059Z,972.53
2018-06-13T01:20:05.725Z,972.62
2018-06-13T01:21:05.140Z,972.53
2018-06-13T01:22:05.204Z,972.43
2018-06-13T01:23:05.892Z,972.59
2018-06-13T01:24:06.000Z,972.46
2018-06-13T01:25:05.053Z,972.46
2018-06-13T01:26:10.748Z,972.34
2018-06-13T01:27:05.564Z,972.43
2018-06-13T01:28:05.689Z,972.37
2018-06-13T01:29:05.694Z,972.43
2018-06-13T01:30:05.319Z,972.40
2018-06-13T01:31:05.559Z,972.49
2018-06-13T01:32:05.478Z,972.40
2018-06-13T01:33:05.094Z,972.54
2018-06-13T01:34:05.043Z,972.43
2018-06-13T01:35:05.885Z,972.46
2018-06-13T01:36:05.191Z,972.43
2018-06-13T01:37:05.281Z,972.46
2018-06-13T01:38:05.756Z,972.35
2018-06-13T01:39:05.754Z,972.32
2018-06-13T01:40:05.300Z,972.29
2018-06-13T01:41:05.919Z,972.49
2018-06-13T01:42:05.358Z,972.35
2018-06-13T01:43:05.094Z,972.38
2018-06-13T01:44:05.230Z,972.38
2018-06-13T01:45:05.815Z,972.32
2018-06-13T01:46:05.456Z,972.35
2018-06-13T01:47:05.664Z,972.41
2018-06-13T01:48:05.807Z,972.23
2018-06-13T01:49:05.840Z,972.44
2018-06-13T01:50:05.955Z,972.38
2018-06-13T01:51:05.070Z,972.35
2018-06-13T01:52:10.574Z,972.38
2018-06-13T01:53:10.125Z,972.29
2018-06-13T01:54:05.960Z,972.29
2018-06-13T01:55:06.602Z,972.23
2018-06-13T01:56:06.174Z,972.35
2018-06-13T01:57:05.595Z,972.29
2018-06-13T01:58:05.670Z,972.18
2018-06-13T01:59:05.645Z,972.23
2018-06-13T02:00:05.522Z,972.20
2018-06-13T02:01:05.790Z,972.18
2018-06-13T02:02:05.103Z,972.41
2018-06-13T02:03:10.741Z,972.35
2018-06-13T02:04:06.105Z,972.29
2018-06-13T02:05:06.216Z,972.24
2018-06-13T02:06:05.480Z,972.24
2018-06-13T02:07:05.428Z,972.29
2018-06-13T02:08:05.449Z,972.32
2018-06-13T02:09:05.987Z,972.35
2018-06-13T02:10:05.684Z,972.12
2018-06-13T02:11:05.508Z,972.32
2018-06-13T02:12:05.174Z,972.21
2018-06-13T02:13:05.973Z,972.15
2018-06-13T02:14:06.399Z,972.18
2018-06-13T02:15:05.545Z,972.27
2018-06-13T02:16:05.391Z,972.18
2018-06-13T02:17:05.958Z,972.33
2018-06-13T02:18:05.428Z,972.24
2018-06-13T02:19:05.375Z,972.42
2018-06-13T02:20:05.440Z,972.24
2018-06-13T02:21:05.855Z,972.33
2018-06-13T02:22:05.397Z,972.36
2018-06-13T02:23:05.915Z,972.45
2018-06-13T02:24:06.196Z,972.33
2018-06-13T02:25:06.022Z,972.28
2018-06-13T02:26:05.979Z,972.28
2018-06-13T02:27:05.521Z,972.22
2018-06-13T02:28:05.070Z,972.31
2018-06-13T02:29:05.194Z,972.31
2018-06-13T02:30:05.388Z,972.37
2018-06-13T02:31:05.801Z,972.40
2018-06-13T02:32:05.783Z,972.31
2018-06-13T02:33:05.385Z,972.40
2018-06-13T02:34:05.352Z,972.43
2018-06-13T02:35:05.407Z,972.31
2018-06-13T02:36:05.312Z,972.34
2018-06-13T02:37:05.866Z,972.37
2018-06-13T02:38:05.818Z,972.49
2018-06-13T02:39:05.902Z,972.40
2018-06-13T02:40:10.816Z,972.26
2018-06-13T02:41:05.421Z,972.29
2018-06-13T02:42:05.374Z,972.46
2018-06-13T02:43:05.591Z,972.41
2018-06-13T02:44:05.792Z,972.44
2018-06-13T02:45:06.907Z,972.54
2018-06-13T02:46:05.424Z,972.44
2018-06-13T02:47:05.074Z,972.44
2018-06-13T02:48:05.718Z,972.38
2018-06-13T02:49:10.045Z,972.55
2018-06-13T02:50:05.911Z,972.44
2018-06-13T02:51:05.385Z,972.52
2018-06-13T02:52:05.139Z,972.58
2018-06-13T02:53:05.342Z,972.44
2018-06-13T02:54:05.448Z,972.44
2018-06-13T02:55:05.476Z,972.52
2018-06-13T02:56:05.856Z,972.39
2018-06-13T02:57:06.053Z,972.42
2018-06-13T02:58:05.956Z,972.42
2018-06-13T02:59:05.930Z,972.55
2018-06-13T03:00:05.765Z,972.47
2018-06-13T03:01:05.087Z,972.36
2018-06-13T03:02:05.605Z,972.45
2018-06-13T03:03:05.649Z,972.58
2018-06-13T03:04:05.643Z,972.39
2018-06-13T03:05:05.897Z,972.61
2018-06-13T03:06:05.607Z,972.55
2018-06-13T03:07:05.804Z,972.75
2018-06-13T03:08:05.242Z,972.64
2018-06-13T03:09:05.911Z,972.64
2018-06-13T03:10:05.641Z,972.61
2018-06-13T03:11:05.510Z,972.52
2018-06-13T03:12:05.893Z,972.61
2018-06-13T03:13:05.774Z,972.55
2018-06-13T03:14:05.572Z,972.58
2018-06-13T03:15:05.776Z,972.64
2018-06-13T03:16:05.899Z,972.70
2018-06-13T03:17:06.039Z,972.64
2018-06-13T03:18:06.616Z,972.75
2018-06-13T03:19:05.327Z,972.78
2018-06-13T03:20:10.625Z,972.75
2018-06-13T03:21:05.720Z,972.72
2018-06-13T03:22:05.386Z,972.67
2018-06-13T03:23:05.548Z,972.69
2018-06-13T03:24:05.718Z,972.87
2018-06-13T03:25:06.842Z,972.69
2018-06-13T03:26:05.220Z,972.81
2018-06-13T03:27:05.839Z,972.87
2018-06-13T03:28:05.679Z,972.73
2018-06-13T03:29:06.440Z,972.70
2018-06-13T03:30:05.178Z,972.75
2018-06-13T03:31:05.294Z,972.76
2018-06-13T03:32:05.038Z,972.78
2018-06-13T03:33:05.689Z,972.90
2018-06-13T03:34:05.968Z,972.84
2018-06-13T03:35:05.855Z,972.84
2018-06-13T03:36:05.900Z,972.84
2018-06-13T03:37:05.421Z,972.76
2018-06-13T03:38:04.967Z,972.79
2018-06-13T03:39:05.884Z,972.81
2018-06-13T03:40:05.587Z,972.81
2018-06-13T03:41:05.659Z,972.79
2018-06-13T03:42:05.760Z,972.87
2018-06-13T03:43:05.598Z,972.79
2018-06-13T03:44:05.852Z,972.70
2018-06-13T03:45:05.291Z,972.79
2018-06-13T03:46:05.227Z,972.70
2018-06-13T03:47:05.724Z,972.88
2018-06-13T03:48:05.578Z,972.88
2018-06-13T03:49:05.427Z,972.93
2018-06-13T03:50:04.990Z,972.96
2018-06-13T03:51:05.795Z,972.93
2018-06-13T03:52:05.442Z,972.82
2018-06-13T03:53:10.678Z,972.91
2018-06-13T03:54:04.934Z,972.96
2018-06-13T03:55:05.297Z,972.94
2018-06-13T03:56:05.250Z,972.99
2018-06-13T03:57:05.107Z,973.05
2018-06-13T03:58:05.206Z,973.05
2018-06-13T03:59:05.436Z,973.05
2018-06-13T04:00:05.590Z,972.99
2018-06-13T04:01:05.773Z,972.99
2018-06-13T04:02:05.652Z,972.99
2018-06-13T04:03:06.189Z,973.17
2018-06-13T04:04:05.943Z,973.05
2018-06-13T04:05:10.473Z,973.02
2018-06-13T04:06:05.174Z,972.99
2018-06-13T04:07:10.932Z,973.02
2018-06-13T04:08:05.863Z,972.97
2018-06-13T04:09:06.011Z,973.17
2018-06-13T04:10:05.807Z,973.11
2018-06-13T04:11:06.042Z,973.08
2018-06-13T04:12:05.251Z,973.14
2018-06-13T04:13:05.352Z,973.23
2018-06-13T04:14:05.226Z,973.11
2018-06-13T04:15:05.289Z,973.06
2018-06-13T04:16:05.335Z,973.03
2018-06-13T04:17:05.639Z,973.05
2018-06-13T04:18:05.606Z,973.00
2018-06-13T04:19:05.579Z,973.20
2018-06-13T04:20:05.901Z,973.14
2018-06-13T04:21:05.537Z,973.08
2018-06-13T04:22:10.387Z,973.03
2018-06-13T04:23:05.312Z,973.17
2018-06-13T04:24:05.373Z,973.25
2018-06-13T04:25:10.883Z,973.14
2018-06-13T04:26:06.281Z,973.00
2018-06-13T04:27:05.371Z,973.08
2018-06-13T04:28:05.287Z,973.14
2018-06-13T04:29:05.729Z,973.11
2018-06-13T04:30:05.681Z,973.00
2018-06-13T04:31:05.144Z,973.17
2018-06-13T04:32:05.322Z,973.11
2018-06-13T04:33:05.217Z,973.05
2018-06-13T04:34:08.187Z,973.25
2018-06-13T04:35:10.218Z,973.11
2018-06-13T04:36:05.277Z,973.05
2018-06-13T04:37:05.832Z,973.08
2018-06-13T04:38:05.980Z,973.22
2018-06-13T04:39:05.056Z,973.19
2018-06-13T04:40:05.761Z,973.08
2018-06-13T04:41:05.895Z,973.08
2018-06-13T04:42:05.199Z,973.28
2018-06-13T04:43:05.747Z,973.14
2018-06-13T04:44:05.251Z,973.17
2018-06-13T04:45:05.407Z,973.11
2018-06-13T04:46:05.619Z,973.03
2018-06-13T04:47:05.888Z,973.06
2018-06-13T04:48:06.000Z,973.03
2018-06-13T04:49:05.152Z,973.11
2018-06-13T04:50:06.007Z,973.09
2018-06-13T04:51:05.954Z,973.32
2018-06-13T04:52:05.359Z,973.17
2018-06-13T04:53:05.668Z,973.06
2018-06-13T04:54:05.694Z,973.15
2018-06-13T04:55:05.413Z,973.03
2018-06-13T04:56:05.846Z,973.17
2018-06-13T04:57:05.595Z,973.20
2018-06-13T04:58:05.319Z,973.26
2018-06-13T04:59:05.640Z,973.15
2018-06-13T05:00:06.233Z,973.23
2018-06-13T05:01:05.564Z,973.09
2018-06-13T05:02:05.597Z,973.18
2018-06-13T05:03:05.554Z,973.29
2018-06-13T05:04:05.770Z,973.26
2018-06-13T05:05:05.830Z,973.35
2018-06-13T05:06:10.562Z,973.41
2018-06-13T05:07:06.128Z,973.41
2018-06-13T05:08:05.857Z,973.38
2018-06-13T05:09:10.901Z,973.41
2018-06-13T05:10:11.007Z,973.41
2018-06-13T05:11:06.292Z,973.50
2018-06-13T05:12:05.821Z,973.50
2018-06-13T05:13:05.731Z,973.50
2018-06-13T05:14:05.742Z,973.44
2018-06-13T05:15:05.659Z,973.41
2018-06-13T05:16:10.412Z,973.53
2018-06-13T05:17:05.445Z,973.47
2018-06-13T05:18:05.363Z,973.47
2018-06-13T05:19:05.260Z,973.53
2018-06-13T05:20:06.437Z,973.36
2018-06-13T05:21:05.809Z,973.33
2018-06-13T05:22:05.553Z,973.42
2018-06-13T05:23:05.620Z,973.42
2018-06-13T05:24:05.759Z,973.48
2018-06-13T05:25:05.708Z,973.48
2018-06-13T05:26:05.255Z,973.39
2018-06-13T05:27:05.054Z,973.42
2018-06-13T05:28:05.183Z,973.31
2018-06-13T05:29:05.208Z,973.54
2018-06-13T05:30:05.192Z,973.48
2018-06-13T05:31:05.472Z,973.39
2018-06-13T05:32:05.582Z,973.31
2018-06-13T05:33:05.621Z,973.48
2018-06-13T05:34:05.832Z,973.42
2018-06-13T05:35:06.118Z,973.40
2018-06-13T05:36:05.220Z,973.34
2018-06-13T05:37:05.154Z,973.43
2018-06-13T05:38:05.297Z,973.48
2018-06-13T05:39:05.230Z,973.40
2018-06-13T05:40:05.563Z,973.49
2018-06-13T05:41:05.510Z,973.40
2018-06-13T05:42:05.610Z,973.51
2018-06-13T05:43:10.594Z,973.59
2018-06-13T05:44:05.791Z,973.56
2018-06-13T05:45:05.664Z,973.52
2018-06-13T05:46:06.014Z,973.52
2018-06-13T05:47:05.190Z,973.49
2018-06-13T05:48:05.037Z,973.46
2018-06-13T05:49:06.596Z,973.37
2018-06-13T05:50:06.198Z,973.43
2018-06-13T05:51:05.653Z,973.56
2018-06-13T05:52:05.984Z,973.40
2018-06-13T05:53:05.940Z,973.54
2018-06-13T05:54:10.771Z,973.45
2018-06-13T05:55:10.888Z,973.45
2018-06-13T05:56:05.059Z,973.51
2018-06-13T05:57:05.247Z,973.48
2018-06-13T05:58:05.443Z,973.48
2018-06-13T05:59:05.525Z,973.58
2018-06-13T06:00:05.895Z,973.42
2018-06-13T06:01:05.923Z,973.54
2018-06-13T06:02:06.131Z,973.51
2018-06-13T06:03:06.141Z,973.58
2018-06-13T06:04:05.247Z,973.48
2018-06-13T06:05:05.401Z,973.58
2018-06-13T06:06:05.114Z,973.50
2018-06-13T06:07:05.536Z,973.64
2018-06-13T06:08:05.662Z,973.45
2018-06-13T06:09:07.012Z,973.47
2018-06-13T06:10:05.126Z,973.50
2018-06-13T06:11:05.581Z,973.47
2018-06-13T06:12:05.899Z,973.42
2018-06-13T06:13:05.890Z,973.53
2018-06-13T06:14:06.096Z,973.61
2018-06-13T06:15:05.502Z,973.55
2018-06-13T06:16:05.732Z,973.66
2018-06-13T06:17:05.452Z,973.55
2018-06-13T06:18:05.090Z,973.61
2018-06-13T06:19:05.024Z,973.47
2018-06-13T06:20:05.202Z,973.53
2018-06-13T06:21:06.687Z,973.58
2018-06-13T06:22:05.852Z,973.69
2018-06-13T06:23:10.915Z,973.50
2018-06-13T06:24:05.937Z,973.60
2018-06-13T06:25:05.396Z,973.54
2018-06-13T06:26:05.235Z,973.52
2018-06-13T06:27:06.889Z,973.52
2018-06-13T06:28:05.870Z,973.60
2018-06-13T06:29:05.057Z,973.44
2018-06-13T06:30:05.193Z,973.44
2018-06-13T06:31:05.644Z,973.54
2018-06-13T06:32:06.305Z,973.57
2018-06-13T06:33:05.814Z,973.49
2018-06-13T06:34:05.587Z,973.57
2018-06-13T06:35:05.865Z,973.68
2018-06-13T06:36:05.951Z,973.66
2018-06-13T06:37:05.429Z,973.54
2018-06-13T06:38:06.008Z,973.57
2018-06-13T06:39:05.114Z,973.63
2018-06-13T06:40:05.749Z,973.57
2018-06-13T06:41:05.263Z,973.63
2018-06-13T06:42:05.074Z,973.54
2018-06-13T06:43:05.969Z,973.54
2018-06-13T06:44:05.730Z,973.63
2018-06-13T06:45:05.971Z,973.63
2018-06-13T06:46:05.625Z,973.57
2018-06-13T06:47:05.656Z,973.77
2018-06-13T06:48:05.197Z,973.57
2018-06-13T06:49:04.995Z,973.66
2018-06-13T06:50:05.988Z,973.66
2018-06-13T06:51:05.664Z,973.57
2018-06-13T06:52:06.157Z,973.57
2018-06-13T06:53:05.304Z,973.72
2018-06-13T06:54:05.398Z,973.77
2018-06-13T06:55:05.725Z,973.72
2018-06-13T06:56:05.866Z,973.75
2018-06-13T06:57:10.508Z,973.66
2018-06-13T06:58:04.975Z,973.66
2018-06-13T06:59:05.805Z,973.71
2018-06-13T07:00:05.214Z,973.71
2018-06-13T07:01:05.088Z,973.74
2018-06-13T07:02:05.337Z,973.77
2018-06-13T07:03:05.341Z,973.80
2018-06-13T07:04:05.172Z,973.74
2018-06-13T07:05:05.873Z,973.77
2018-06-13T07:06:05.976Z,973.68
2018-06-13T07:07:06.588Z,973.66
2018-06-13T07:08:06.032Z,973.71
2018-06-13T07:09:05.201Z,973.77
2018-06-13T07:10:05.514Z,973.83
2018-06-13T07:11:10.218Z,973.89
2018-06-13T07:12:05.444Z,973.80
2018-06-13T07:13:05.608Z,973.74
2018-06-13T07:14:05.698Z,973.74
2018-06-13T07:15:05.959Z,973.77
2018-06-13T07:16:05.072Z,973.83
2018-06-13T07:17:06.074Z,973.94
2018-06-13T07:18:05.054Z,973.80
2018-06-13T07:19:05.217Z,973.91
2018-06-13T07:20:05.954Z,973.66
2018-06-13T07:21:05.258Z,973.83
2018-06-13T07:22:05.608Z,973.83
2018-06-13T07:23:05.579Z,973.80
2018-06-13T07:24:05.204Z,973.80
2018-06-13T07:25:05.814Z,973.72
2018-06-13T07:26:05.907Z,973.83
2018-06-13T07:27:06.091Z,973.83
2018-06-13T07:28:05.077Z,973.83
2018-06-13T07:29:05.877Z,973.83
2018-06-13T07:30:05.624Z,973.83
2018-06-13T07:31:05.736Z,973.83
2018-06-13T07:32:05.467Z,973.89
2018-06-13T07:33:05.767Z,973.80
2018-06-13T07:34:05.155Z,973.89
2018-06-13T07:35:05.067Z,973.89
2018-06-13T07:36:06.064Z,973.94
2018-06-13T07:37:06.152Z,973.91
2018-06-13T07:38:06.152Z,973.94
2018-06-13T07:39:05.245Z,973.92
2018-06-13T07:40:05.780Z,973.77
2018-06-13T07:41:05.687Z,973.94
2018-06-13T07:42:05.504Z,973.94
2018-06-13T07:43:05.183Z,974.00
2018-06-13T07:44:05.957Z,973.88
2018-06-13T07:45:05.153Z,973.88
2018-06-13T07:46:05.720Z,973.94
2018-06-13T07:47:06.001Z,973.85
2018-06-13T07:48:05.422Z,973.94
2018-06-13T07:49:05.310Z,974.05
2018-06-13T07:50:05.910Z,974.08
2018-06-13T07:51:05.639Z,974.08
2018-06-13T07:52:04.981Z,974.05
2018-06-13T07:53:05.189Z,974.02
2018-06-13T07:54:05.648Z,973.96
2018-06-13T07:55:05.910Z,973.87
2018-06-13T07:56:06.150Z,974.02
2018-06-13T07:57:06.201Z,973.90
2018-06-13T07:58:05.402Z,973.96
2018-06-13T07:59:05.478Z,973.90
2018-06-13T08:00:07.074Z,973.85
2018-06-13T08:01:05.056Z,973.99
2018-06-13T08:02:05.654Z,974.05
2018-06-13T08:03:05.783Z,974.10
2018-06-13T08:04:05.930Z,974.05
2018-06-13T08:05:06.326Z,974.08
2018-06-13T08:06:06.291Z,973.96
2018-06-13T08:07:05.551Z,974.07
2018-06-13T08:08:05.502Z,974.13
2018-06-13T08:09:05.905Z,973.98
2018-06-13T08:10:05.143Z,974.04
2018-06-13T08:11:05.816Z,973.95
2018-06-13T08:12:10.486Z,973.92
2018-06-13T08:13:05.507Z,974.07
2018-06-13T08:14:06.340Z,974.09
2018-06-13T08:15:11.012Z,974.18
2018-06-13T08:16:06.157Z,974.12
2018-06-13T08:17:05.447Z,974.04
2018-06-13T08:18:05.842Z,974.12
2018-06-13T08:19:05.149Z,974.15
2018-06-13T08:20:05.860Z,974.01
2018-06-13T08:21:05.992Z,974.00
2018-06-13T08:22:06.052Z,973.98
2018-06-13T08:23:05.095Z,974.12
2018-06-13T08:24:05.003Z,974.06
2018-06-13T08:25:05.272Z,974.00
2018-06-13T08:26:05.150Z,974.03
2018-06-13T08:27:05.527Z,974.06
2018-06-13T08:28:05.360Z,974.03
2018-06-13T08:29:05.556Z,973.95
2018-06-13T08:30:06.272Z,974.06
2018-06-13T08:31:05.799Z,974.09
2018-06-13T08:32:05.695Z,974.12
2018-06-13T08:33:05.273Z,974.09
2018-06-13T08:34:05.498Z,974.09
2018-06-13T08:35:05.567Z,974.03
2018-06-13T08:36:05.450Z,974.09
2018-06-13T08:37:05.757Z,974.12
2018-06-13T08:38:05.756Z,974.09
2018-06-13T08:39:05.173Z,974.09
2018-06-13T08:40:05.914Z,974.18
2018-06-13T08:41:05.913Z,974.09
2018-06-13T08:42:04.962Z,974.15
2018-06-13T08:43:05.395Z,974.23
2018-06-13T08:44:05.350Z,974.26
2018-06-13T08:45:05.847Z,974.12
2018-06-13T08:46:05.554Z,974.12
2018-06-13T08:47:05.550Z,974.15
2018-06-13T08:48:05.046Z,974.18
2018-06-13T08:49:05.944Z,974.21
2018-06-13T08:50:05.894Z,974.15
2018-06-13T08:51:06.087Z,974.21
2018-06-13T08:52:05.214Z,974.09
2018-06-13T08:53:05.491Z,974.12
2018-06-13T08:54:05.705Z,974.12
2018-06-13T08:55:05.460Z,974.15
2018-06-13T08:56:05.343Z,974.12
2018-06-13T08:57:05.496Z,974.18
2018-06-13T08:58:05.063Z,974.12
2018-06-13T08:59:05.887Z,974.15
2018-06-13T09:00:06.181Z,974.26
2018-06-13T09:01:06.293Z,974.23
2018-06-13T09:02:05.360Z,974.18
2018-06-13T09:03:05.929Z,974.15
2018-06-13T09:04:05.457Z,974.26
2018-06-13T09:05:05.486Z,974.29
2018-06-13T09:06:05.621Z,974.24
2018-06-13T09:07:05.047Z,974.24
2018-06-13T09:08:05.852Z,974.29
2018-06-13T09:09:05.948Z,974.29
2018-06-13T09:10:06.752Z,974.41
2018-06-13T09:11:06.206Z,974.27
2018-06-13T09:12:05.784Z,974.30
2018-06-13T09:13:05.314Z,974.27
2018-06-13T09:14:05.881Z,974.24
2018-06-13T09:15:05.627Z,974.27
2018-06-13T09:16:06.436Z,974.30
2018-06-13T09:17:05.971Z,974.29
2018-06-13T09:18:05.532Z,974.26
2018-06-13T09:19:05.780Z,974.35
2018-06-13T09:20:05.755Z,974.26
2018-06-13T09:21:05.210Z,974.26
2018-06-13T09:22:05.630Z,974.29
2018-06-13T09:23:05.865Z,974.23
2018-06-13T09:24:05.608Z,974.38
2018-06-13T09:25:05.844Z,974.29
2018-06-13T09:26:05.085Z,974.26
2018-06-13T09:27:05.253Z,974.35
2018-06-13T09:28:05.450Z,974.35
2018-06-13T09:29:05.568Z,974.23
2018-06-13T09:30:05.500Z,974.23
2018-06-13T09:31:06.095Z,974.23
2018-06-13T09:32:05.590Z,974.20
2018-06-13T09:33:05.534Z,974.31
2018-06-13T09:34:05.137Z,974.31
2018-06-13T09:35:05.250Z,974.22
2018-06-13T09:36:05.312Z,974.31
2018-06-13T09:37:05.158Z,974.19
2018-06-13T09:38:05.236Z,974.19
2018-06-13T09:39:05.951Z,974.22
2018-06-13T09:40:06.107Z,974.27
2018-06-13T09:41:05.021Z,974.10
2018-06-13T09:42:05.740Z,974.21
2018-06-13T09:43:05.982Z,974.27
2018-06-13T09:44:05.885Z,974.15
2018-06-13T09:45:05.251Z,974.18
2018-06-13T09:46:12.715Z,974.17
2018-06-13T09:47:23.262Z,974.26
2018-06-13T09:48:05.253Z,974.31
2018-06-13T09:49:05.686Z,974.11
2018-06-13T09:50:05.772Z,974.16
2018-06-13T09:51:05.803Z,974.13
2018-06-13T09:52:05.899Z,974.02
2018-06-13T09:53:05.765Z,974.13
2018-06-13T09:54:05.876Z,974.27
2018-06-13T09:55:05.678Z,974.15
2018-06-13T09:56:05.636Z,974.12
2018-06-13T09:57:05.690Z,974.15
2018-06-13T09:58:05.192Z,974.20
2018-06-13T09:59:05.702Z,974.17
2018-06-13T10:00:05.567Z,974.25
2018-06-13T10:01:05.680Z,974.25
2018-06-13T10:02:05.827Z,974.36
2018-06-13T10:03:05.777Z,974.30
2018-06-13T10:04:05.811Z,974.36
2018-06-13T10:05:05.342Z,974.21
2018-06-13T10:06:05.484Z,974.21
2018-06-13T10:07:05.601Z,974.27
2018-06-13T10:08:05.457Z,974.26
2018-06-13T10:09:05.037Z,974.18
2018-06-13T10:10:05.772Z,974.17
2018-06-13T10:11:05.092Z,974.14
2018-06-13T10:12:05.272Z,974.26
2018-06-13T10:13:05.242Z,974.19
2018-06-13T10:14:05.737Z,974.16
2018-06-13T10:15:05.639Z,974.19
2018-06-13T10:16:05.741Z,974.19
2018-06-13T10:17:06.509Z,974.33
2018-06-13T10:18:05.576Z,974.18
2018-06-13T10:19:05.450Z,974.30
2018-06-13T10:20:05.257Z,974.12
2018-06-13T10:21:05.495Z,974.38
2018-06-13T10:22:05.924Z,974.27
2018-06-13T10:23:05.933Z,974.18
2018-06-13T10:24:05.568Z,974.23
2018-06-13T10:25:05.753Z,974.29
2018-06-13T10:26:05.911Z,974.29
2018-06-13T10:27:06.157Z,974.29
2018-06-13T10:28:05.353Z,974.29
2018-06-13T10:29:05.149Z,974.26
2018-06-13T10:30:05.370Z,974.26
2018-06-13T10:31:05.988Z,974.17
2018-06-13T10:32:05.451Z,974.37
2018-06-13T10:33:05.842Z,974.29
2018-06-13T10:34:05.412Z,974.35
2018-06-13T10:35:05.186Z,974.38
2018-06-13T10:36:05.854Z,974.18
2018-06-13T10:37:05.631Z,974.32
2018-06-13T10:38:05.204Z,974.21
2018-06-13T10:39:05.325Z,974.30
2018-06-13T10:40:05.988Z,974.30
2018-06-13T10:41:05.449Z,974.33
2018-06-13T10:42:05.829Z,974.41
2018-06-13T10:43:06.475Z,974.39
2018-06-13T10:44:05.990Z,974.44
2018-06-13T10:45:05.367Z,974.24
2018-06-13T10:46:05.203Z,974.36
2018-06-13T10:47:05.669Z,974.25
2018-06-13T10:48:05.641Z,974.28
2018-06-13T10:49:09.165Z,974.31
2018-06-13T10:50:05.124Z,974.30
2018-06-13T10:51:05.459Z,974.39
2018-06-13T10:52:05.578Z,974.48
2018-06-13T10:53:05.450Z,974.45
2018-06-13T10:54:05.636Z,974.42
2018-06-13T10:55:05.719Z,974.39
2018-06-13T10:56:05.618Z,974.33
2018-06-13T10:57:10.780Z,974.30
2018-06-13T10:58:05.848Z,974.44
2018-06-13T10:59:05.310Z,974.36
2018-06-13T11:00:06.126Z,974.30
2018-06-13T11:01:05.352Z,974.35
2018-06-13T11:02:05.232Z,974.29
2018-06-13T11:03:05.568Z,974.29
2018-06-13T11:04:05.506Z,974.49
2018-06-13T11:05:05.319Z,974.46
2018-06-13T11:06:05.119Z,974.37
2018-06-13T11:07:04.940Z,974.37
2018-06-13T11:08:04.959Z,974.23
2018-06-13T11:09:05.035Z,974.40
2018-06-13T11:10:05.117Z,974.43
2018-06-13T11:11:05.619Z,974.37
2018-06-13T11:12:05.563Z,974.25
2018-06-13T11:13:05.370Z,974.39
2018-06-13T11:14:05.590Z,974.36
2018-06-13T11:15:05.694Z,974.39
2018-06-13T11:16:05.010Z,974.31
2018-06-13T11:17:05.920Z,974.54
2018-06-13T11:18:05.065Z,974.33
2018-06-13T11:19:05.170Z,974.36
2018-06-13T11:20:05.332Z,974.45
2018-06-13T11:21:05.627Z,974.42
2018-06-13T11:22:05.431Z,974.30
2018-06-13T11:23:05.601Z,974.39
2018-06-13T11:24:05.649Z,974.42
2018-06-13T11:25:06.041Z,974.36
2018-06-13T11:26:05.051Z,974.45
2018-06-13T11:27:05.077Z,974.42
2018-06-13T11:28:05.213Z,974.45
2018-06-13T11:29:10.073Z,974.39
2018-06-13T11:30:05.628Z,974.42
2018-06-13T11:31:05.854Z,974.53
2018-06-13T11:32:05.431Z,974.42
2018-06-13T11:33:05.149Z,974.42
2018-06-13T11:34:05.199Z,974.45
2018-06-13T11:35:05.689Z,974.51
2018-06-13T11:36:05.263Z,974.48
2018-06-13T11:37:06.314Z,974.51
2018-06-13T11:38:05.041Z,974.54
2018-06-13T11:39:05.510Z,974.57
2018-06-13T11:40:05.536Z,974.51
2018-06-13T11:41:05.697Z,974.49
2018-06-13T11:42:05.732Z,974.52
2018-06-13T11:43:05.796Z,974.49
2018-06-13T11:44:05.072Z,974.61
2018-06-13T11:45:05.909Z,974.58
2018-06-13T11:46:05.539Z,974.50
2018-06-13T11:47:05.474Z,974.55
2018-06-13T11:48:05.538Z,974.44
2018-06-13T11:49:05.474Z,974.50
2018-06-13T11:50:10.168Z,974.38
2018-06-13T11:51:06.037Z,974.38
2018-06-13T11:52:05.739Z,974.32
2018-06-13T11:53:05.797Z,974.43
2018-06-13T11:54:05.845Z,974.46
2018-06-13T11:55:06.071Z,974.43
2018-06-13T11:56:05.575Z,974.37
2018-06-13T11:57:06.232Z,974.43
2018-06-13T11:58:05.264Z,974.40
2018-06-13T11:59:05.490Z,974.28
2018-06-13T12:00:05.054Z,974.51
2018-06-13T12:01:04.983Z,974.48
2018-06-13T12:02:05.297Z,974.48
2018-06-13T12:03:05.032Z,974.60
2018-06-13T12:04:05.887Z,974.36
2018-06-13T12:05:06.035Z,974.36
2018-06-13T12:06:05.644Z,974.48
2018-06-13T12:07:05.599Z,974.45
2018-06-13T12:08:05.490Z,974.39
2018-06-13T12:09:05.503Z,974.39
2018-06-13T12:10:05.903Z,974.62
2018-06-13T12:11:05.473Z,974.44
2018-06-13T12:12:05.048Z,974.44
2018-06-13T12:13:05.844Z,974.47
2018-06-13T12:14:05.280Z,974.47
2018-06-13T12:15:05.413Z,974.55
2018-06-13T12:16:05.134Z,974.38
2018-06-13T12:17:05.378Z,974.49
2018-06-13T12:18:05.777Z,974.43
2018-06-13T12:19:05.571Z,974.51
2018-06-13T12:20:05.089Z,974.48
2018-06-13T12:21:05.799Z,974.54
2018-06-13T12:22:05.457Z,974.37
2018-06-13T12:23:05.094Z,974.51
2018-06-13T12:24:05.276Z,974.68
2018-06-13T12:25:05.647Z,974.59
2018-06-13T12:26:05.299Z,974.48
2018-06-13T12:27:04.993Z,974.50
2018-06-13T12:28:06.272Z,974.33